createdAt,value
2017-03-03T00:01:01.988Z,99.99
2017-03-03T00:02:15.095Z,99.99
2017-03-03T00:03:28.190Z,99.99
2017-03-03T00:04:41.237Z,99.99
2017-03-03T00:05:54.350Z,99.99
2017-03-03T00:07:07.681Z,99.99
2017-03-03T00:08:20.749Z,99.99
2017-03-03T00:09:33.838Z,99.99
2017-03-03T00:10:46.888Z,99.99
2017-03-03T00:11:59.967Z,99.99
2017-03-03T00:13:13.005Z,99.99
2017-03-03T00:14:25.684Z,99.99
2017-03-03T00:15:38.753Z,99.99
2017-03-03T00:16:51.816Z,99.99
2017-03-03T00:18:04.117Z,99.99
2017-03-03T00:19:16.760Z,99.99
2017-03-03T00:20:29.811Z,99.99
2017-03-03T00:21:42.894Z,99.99
2017-03-03T00:22:55.801Z,99.99
2017-03-03T00:24:08.860Z,99.99
2017-03-03T00:25:21.959Z,99.99
2017-03-03T00:26:35.058Z,99.99
2017-03-03T00:27:48.138Z,99.99
2017-03-03T00:29:01.206Z,99.99
2017-03-03T00:30:14.268Z,99.99
2017-03-03T00:31:27.345Z,99.99
2017-03-03T00:32:40.019Z,99.99
2017-03-03T00:33:53.085Z,99.99
2017-03-03T00:35:05.766Z,99.99
2017-03-03T00:36:18.819Z,99.99
2017-03-03T00:37:31.900Z,99.99
2017-03-03T00:38:44.964Z,99.99
2017-03-03T00:39:58.007Z,99.99
2017-03-03T00:41:10.664Z,99.99
2017-03-03T00:42:23.726Z,99.99
2017-03-03T00:43:36.473Z,99.99
2017-03-03T00:44:49.205Z,99.99
2017-03-03T00:46:02.274Z,99.99
2017-03-03T00:47:15.357Z,99.99
2017-03-03T00:48:28.404Z,99.99
2017-03-03T00:49:41.439Z,99.99
2017-03-03T00:50:54.548Z,99.99
2017-03-03T00:52:07.616Z,99.99
2017-03-03T00:53:20.676Z,99.99
2017-03-03T00:54:33.733Z,99.99
2017-03-03T00:55:46.828Z,99.99
2017-03-03T00:56:59.882Z,99.99
2017-03-03T00:58:12.584Z,99.99
2017-03-03T00:59:25.690Z,99.99
2017-03-03T01:00:38.769Z,99.99
2017-03-03T01:01:51.446Z,99.99
2017-03-03T01:03:04.511Z,99.99
2017-03-03T01:04:17.557Z,99.99
2017-03-03T01:05:30.636Z,99.99
2017-03-03T01:06:43.698Z,99.99
2017-03-03T01:07:56.373Z,99.99
2017-03-03T01:09:09.440Z,99.99
2017-03-03T01:10:22.518Z,99.99
2017-03-03T01:11:35.212Z,99.99
2017-03-03T01:12:47.931Z,99.99
2017-03-03T01:14:00.653Z,99.99
2017-03-03T01:15:13.763Z,99.99
2017-03-03T01:16:26.466Z,99.99
2017-03-03T01:17:39.179Z,99.99
2017-03-03T01:18:52.237Z,99.99
2017-03-03T01:20:04.954Z,99.99
2017-03-03T01:21:17.617Z,99.99
2017-03-03T01:22:30.692Z,99.99
2017-03-03T01:23:43.416Z,99.99
2017-03-03T01:24:56.490Z,99.99
2017-03-03T01:26:09.554Z,99.99
2017-03-03T01:27:22.583Z,99.99
2017-03-03T01:28:35.902Z,99.99
2017-03-03T01:29:48.970Z,99.99
2017-03-03T01:31:01.687Z,99.99
2017-03-03T01:32:14.766Z,99.99
2017-03-03T01:33:27.829Z,99.99
2017-03-03T01:34:40.900Z,99.99
2017-03-03T01:35:53.967Z,99.99
2017-03-03T01:37:07.024Z,99.99
2017-03-03T01:38:20.071Z,99.99
2017-03-03T01:39:33.392Z,99.99
2017-03-03T01:40:46.459Z,99.99
2017-03-03T01:41:59.178Z,99.99
2017-03-03T01:43:12.292Z,99.99
2017-03-03T01:44:25.329Z,99.99
2017-03-03T01:45:38.018Z,99.99
2017-03-03T01:46:51.117Z,99.99
2017-03-03T01:48:04.189Z,99.99
2017-03-03T01:49:17.283Z,99.99
2017-03-03T01:50:30.381Z,99.99
2017-03-03T01:51:43.475Z,99.99
2017-03-03T01:52:56.537Z,99.99
2017-03-03T01:54:09.592Z,99.99
2017-03-03T01:55:22.633Z,99.99
2017-03-03T01:56:35.704Z,99.99
2017-03-03T01:57:48.792Z,99.99
2017-03-03T01:59:01.864Z,99.99
2017-03-03T02:00:14.897Z,99.99
2017-03-03T02:01:27.563Z,99.99
2017-03-03T02:02:40.242Z,99.99
2017-03-03T02:03:53.284Z,99.99
2017-03-03T02:05:06.304Z,99.99
2017-03-03T02:06:19.343Z,99.99
2017-03-03T02:07:32.435Z,99.99
2017-03-03T02:08:45.488Z,99.99
2017-03-03T02:09:58.587Z,99.99
2017-03-03T02:11:11.646Z,99.99
2017-03-03T02:12:24.731Z,99.99
2017-03-03T02:13:37.426Z,99.99
2017-03-03T02:14:50.476Z,99.99
2017-03-03T02:16:03.542Z,99.99
2017-03-03T02:17:16.218Z,99.99
2017-03-03T02:18:29.301Z,99.99
2017-03-03T02:19:42.044Z,99.99
2017-03-03T02:20:55.101Z,99.99
2017-03-03T02:22:08.173Z,99.99
2017-03-03T02:23:21.264Z,99.99
2017-03-03T02:24:34.328Z,99.99
2017-03-03T02:25:47.407Z,99.99
2017-03-03T02:27:00.472Z,99.99
2017-03-03T02:28:13.581Z,99.99
2017-03-03T02:29:26.664Z,99.99
2017-03-03T02:30:39.735Z,99.99
2017-03-03T02:31:52.430Z,99.99
2017-03-03T02:33:05.360Z,99.99
2017-03-03T02:34:18.432Z,99.99
2017-03-03T02:35:31.525Z,99.99
2017-03-03T02:36:44.202Z,99.99
2017-03-03T02:37:56.541Z,99.99
2017-03-03T02:39:09.586Z,99.99
2017-03-03T02:40:22.661Z,99.99
2017-03-03T02:41:35.352Z,99.99
2017-03-03T02:42:48.379Z,99.99
2017-03-03T02:44:01.444Z,99.99
2017-03-03T02:45:14.492Z,99.99
2017-03-03T02:46:27.546Z,99.99
2017-03-03T02:47:40.610Z,99.99
2017-03-03T02:48:53.677Z,99.99
2017-03-03T02:50:06.341Z,99.99
2017-03-03T02:51:19.448Z,99.99
2017-03-03T02:52:32.515Z,99.99
2017-03-03T02:53:45.582Z,99.99
2017-03-03T02:54:57.908Z,99.99
2017-03-03T02:56:10.932Z,99.99
2017-03-03T02:57:23.599Z,99.99
2017-03-03T02:58:36.655Z,99.99
2017-03-03T02:59:49.740Z,99.99
2017-03-03T03:01:02.807Z,99.99
2017-03-03T03:02:15.882Z,99.99
2017-03-03T03:03:28.948Z,99.99
2017-03-03T03:04:42.027Z,99.99
2017-03-03T03:05:55.072Z,99.99
2017-03-03T03:07:08.144Z,99.99
2017-03-03T03:08:21.240Z,99.99
2017-03-03T03:09:34.327Z,99.99
2017-03-03T03:10:47.274Z,99.99
2017-03-03T03:12:00.003Z,99.99
2017-03-03T03:13:13.078Z,99.99
2017-03-03T03:14:26.144Z,99.99
2017-03-03T03:15:38.821Z,99.99
2017-03-03T03:16:51.903Z,99.99
2017-03-03T03:18:05.008Z,99.99
2017-03-03T03:19:17.667Z,99.99
2017-03-03T03:20:30.764Z,99.99
2017-03-03T03:21:43.842Z,99.99
2017-03-03T03:22:56.940Z,99.99
2017-03-03T03:24:09.654Z,99.99
2017-03-03T03:25:22.782Z,99.99
2017-03-03T03:26:35.883Z,99.99
2017-03-03T03:27:48.948Z,99.99
2017-03-03T03:29:02.046Z,99.99
2017-03-03T03:30:15.108Z,99.99
2017-03-03T03:31:27.786Z,99.99
2017-03-03T03:32:41.110Z,99.99
2017-03-03T03:33:54.200Z,99.99
2017-03-03T03:35:07.270Z,99.99
2017-03-03T03:36:20.360Z,99.99
2017-03-03T03:37:33.433Z,99.99
2017-03-03T03:38:46.758Z,99.99
2017-03-03T03:39:59.407Z,99.99
2017-03-03T03:41:12.454Z,99.99
2017-03-03T03:42:24.755Z,99.99
2017-03-03T03:43:37.841Z,99.99
2017-03-03T03:44:50.915Z,99.99
2017-03-03T03:46:03.586Z,99.99
2017-03-03T03:47:16.648Z,99.99
2017-03-03T03:48:29.717Z,99.99
2017-03-03T03:49:42.771Z,99.99
2017-03-03T03:50:55.448Z,99.99
2017-03-03T03:52:08.513Z,99.99
2017-03-03T03:53:21.580Z,99.99
2017-03-03T03:54:34.629Z,99.99
2017-03-03T03:55:47.742Z,99.99
2017-03-03T03:57:00.049Z,99.99
2017-03-03T03:58:12.710Z,99.99
2017-03-03T03:59:25.392Z,99.99
2017-03-03T04:00:38.459Z,99.99
2017-03-03T04:01:51.505Z,99.99
2017-03-03T04:03:04.530Z,99.99
2017-03-03T04:04:17.622Z,99.99
2017-03-03T04:05:30.951Z,99.99
2017-03-03T04:06:44.015Z,99.99
2017-03-03T04:07:57.084Z,99.99
2017-03-03T04:09:10.184Z,99.99
2017-03-03T04:10:23.244Z,99.99
2017-03-03T04:11:36.297Z,99.99
2017-03-03T04:12:49.368Z,99.99
2017-03-03T04:14:02.432Z,99.99
2017-03-03T04:15:15.090Z,99.99
2017-03-03T04:16:27.763Z,99.99
2017-03-03T04:17:40.829Z,99.99
2017-03-03T04:18:53.891Z,99.99
2017-03-03T04:20:07.002Z,99.99
2017-03-03T04:21:20.092Z,99.99
2017-03-03T04:22:33.164Z,99.99
2017-03-03T04:23:45.838Z,99.99
2017-03-03T04:24:58.503Z,99.99
2017-03-03T04:26:11.523Z,99.99
2017-03-03T04:27:24.585Z,99.99
2017-03-03T04:28:37.259Z,99.99
2017-03-03T04:29:50.335Z,99.99
2017-03-03T04:31:03.024Z,99.99
2017-03-03T04:32:16.086Z,99.99
2017-03-03T04:33:29.149Z,99.99
2017-03-03T04:34:41.819Z,99.99
2017-03-03T04:35:54.861Z,99.99
2017-03-03T04:37:07.921Z,99.99
2017-03-03T04:38:20.982Z,99.99
2017-03-03T04:39:33.656Z,99.99
2017-03-03T04:40:46.731Z,99.99
2017-03-03T04:41:59.815Z,99.99
2017-03-03T04:43:12.490Z,99.99
2017-03-03T04:44:25.536Z,99.99
2017-03-03T04:45:38.587Z,99.99
2017-03-03T04:46:51.629Z,99.99
2017-03-03T04:48:04.718Z,99.99
2017-03-03T04:49:16.649Z,99.99
2017-03-03T04:50:29.736Z,99.99
2017-03-03T04:51:42.442Z,99.99
2017-03-03T04:52:55.133Z,99.99
2017-03-03T04:54:08.182Z,99.99
2017-03-03T04:55:20.852Z,99.99
2017-03-03T04:56:33.901Z,99.99
2017-03-03T04:57:46.941Z,99.99
2017-03-03T04:59:00.004Z,99.99
2017-03-03T05:00:13.354Z,99.99
2017-03-03T05:01:26.478Z,99.99
2017-03-03T05:02:39.546Z,99.99
2017-03-03T05:03:52.599Z,99.99
2017-03-03T05:05:05.292Z,99.99
2017-03-03T05:06:18.382Z,99.99
2017-03-03T05:07:31.436Z,99.99
2017-03-03T05:08:44.484Z,99.99
2017-03-03T05:09:57.528Z,99.99
2017-03-03T05:11:10.553Z,99.99
2017-03-03T05:12:23.637Z,99.99
2017-03-03T05:13:36.287Z,99.99
2017-03-03T05:14:49.363Z,99.99
2017-03-03T05:16:02.429Z,99.99
2017-03-03T05:17:15.482Z,99.99
2017-03-03T05:18:28.545Z,99.99
2017-03-03T05:19:41.220Z,99.99
2017-03-03T05:20:54.312Z,99.99
2017-03-03T05:22:07.654Z,99.99
2017-03-03T05:23:20.379Z,99.99
2017-03-03T05:24:33.431Z,99.99
2017-03-03T05:25:46.473Z,99.99
2017-03-03T05:26:59.520Z,99.99
2017-03-03T05:28:12.616Z,99.99
2017-03-03T05:29:25.338Z,99.99
2017-03-03T05:30:38.408Z,99.99
2017-03-03T05:31:51.454Z,99.99
2017-03-03T05:33:04.800Z,99.99
2017-03-03T05:34:17.896Z,99.99
2017-03-03T05:35:31.013Z,99.99
2017-03-03T05:36:44.113Z,99.99
2017-03-03T05:37:57.155Z,99.99
2017-03-03T05:39:10.497Z,99.99
2017-03-03T05:40:23.548Z,99.99
2017-03-03T05:41:36.644Z,99.99
2017-03-03T05:42:49.738Z,99.99
2017-03-03T05:44:02.789Z,99.99
2017-03-03T05:45:15.850Z,99.99
2017-03-03T05:46:28.544Z,99.99
2017-03-03T05:47:41.604Z,99.99
2017-03-03T05:48:54.722Z,99.99
2017-03-03T05:50:07.814Z,99.99
2017-03-03T05:51:20.491Z,99.99
2017-03-03T05:52:33.537Z,99.99
2017-03-03T05:53:46.629Z,99.99
2017-03-03T05:54:59.676Z,99.99
2017-03-03T05:56:12.736Z,99.99
2017-03-03T05:57:25.792Z,99.99
2017-03-03T05:58:38.856Z,99.99
2017-03-03T05:59:51.910Z,99.99
2017-03-03T06:01:04.994Z,99.99
2017-03-03T06:02:18.075Z,99.99
2017-03-03T06:03:31.121Z,99.99
2017-03-03T06:04:44.240Z,99.99
2017-03-03T06:05:57.303Z,99.99
2017-03-03T06:07:10.373Z,99.99
2017-03-03T06:08:23.444Z,99.99
2017-03-03T06:09:36.523Z,99.99
2017-03-03T06:10:49.212Z,99.99
2017-03-03T06:12:02.269Z,99.99
2017-03-03T06:13:15.357Z,99.99
2017-03-03T06:14:28.457Z,99.99
2017-03-03T06:15:41.157Z,99.99
2017-03-03T06:16:54.226Z,99.99
2017-03-03T06:18:07.297Z,99.99
2017-03-03T06:19:20.021Z,99.99
2017-03-03T06:20:33.161Z,99.99
2017-03-03T06:21:45.864Z,99.99
2017-03-03T06:22:58.910Z,99.99
2017-03-03T06:24:11.976Z,99.99
2017-03-03T06:25:24.994Z,99.99
2017-03-03T06:26:38.066Z,99.99
2017-03-03T06:27:51.140Z,99.99
2017-03-03T06:29:04.211Z,99.99
2017-03-03T06:30:16.925Z,99.99
2017-03-03T06:31:29.629Z,99.99
2017-03-03T06:32:42.664Z,99.99
2017-03-03T06:33:55.344Z,99.99
2017-03-03T06:35:08.390Z,99.99
2017-03-03T06:36:21.479Z,99.99
2017-03-03T06:37:34.508Z,99.99
2017-03-03T06:38:47.601Z,99.99
2017-03-03T06:40:00.675Z,99.99
2017-03-03T06:41:13.746Z,99.99
2017-03-03T06:42:26.811Z,99.99
2017-03-03T06:43:39.862Z,99.99
2017-03-03T06:44:52.908Z,99.99
2017-03-03T06:46:06.017Z,99.99
2017-03-03T06:47:19.092Z,99.99
2017-03-03T06:48:31.744Z,99.99
2017-03-03T06:49:45.061Z,99.99
2017-03-03T06:50:58.117Z,99.99
2017-03-03T06:52:10.421Z,99.99
2017-03-03T06:53:23.497Z,99.99
2017-03-03T06:54:36.174Z,99.99
2017-03-03T06:55:49.244Z,99.99
2017-03-03T06:57:02.329Z,99.99
2017-03-03T06:58:15.391Z,99.99
2017-03-03T06:59:27.704Z,99.99
2017-03-03T07:00:40.825Z,99.99
2017-03-03T07:01:53.870Z,99.99
2017-03-03T07:03:06.957Z,99.99
2017-03-03T07:04:19.613Z,99.99
2017-03-03T07:05:32.682Z,99.99
2017-03-03T07:06:45.329Z,99.99
2017-03-03T07:07:58.428Z,99.99
2017-03-03T07:09:11.149Z,99.99
2017-03-03T07:10:24.209Z,99.99
2017-03-03T07:11:36.891Z,99.99
2017-03-03T07:12:49.912Z,99.99
2017-03-03T07:14:02.971Z,99.99
2017-03-03T07:15:15.628Z,99.99
2017-03-03T07:16:28.688Z,99.99
2017-03-03T07:17:41.370Z,99.99
2017-03-03T07:18:54.033Z,99.99
2017-03-03T07:20:07.109Z,99.99
2017-03-03T07:21:20.179Z,99.99
2017-03-03T07:22:33.103Z,99.99
2017-03-03T07:23:46.174Z,99.99
2017-03-03T07:24:59.302Z,99.99
2017-03-03T07:26:12.009Z,99.99
2017-03-03T07:27:25.063Z,99.99
2017-03-03T07:28:37.729Z,99.99
2017-03-03T07:29:50.393Z,99.99
2017-03-03T07:31:03.424Z,99.99
2017-03-03T07:32:16.138Z,99.99
2017-03-03T07:33:28.859Z,99.99
2017-03-03T07:34:41.558Z,99.99
2017-03-03T07:35:54.631Z,99.99
2017-03-03T07:37:07.719Z,99.99
2017-03-03T07:38:20.396Z,99.99
2017-03-03T07:39:33.473Z,99.99
2017-03-03T07:40:46.539Z,99.99
2017-03-03T07:41:59.633Z,99.99
2017-03-03T07:43:12.305Z,99.99
2017-03-03T07:44:25.644Z,99.99
2017-03-03T07:45:38.701Z,99.99
2017-03-03T07:46:51.789Z,99.99
2017-03-03T07:48:04.847Z,99.99
2017-03-03T07:49:17.943Z,99.99
2017-03-03T07:50:30.638Z,99.99
2017-03-03T07:51:43.701Z,99.99
2017-03-03T07:52:56.768Z,99.99
2017-03-03T07:54:09.898Z,99.99
2017-03-03T07:55:22.945Z,99.99
2017-03-03T07:56:35.584Z,99.99
2017-03-03T07:57:48.639Z,99.99
2017-03-03T07:59:01.701Z,99.99
2017-03-03T08:00:14.742Z,99.99
2017-03-03T08:01:27.043Z,99.99
2017-03-03T08:02:39.741Z,99.99
2017-03-03T08:03:52.808Z,99.99
2017-03-03T08:05:05.885Z,99.99
2017-03-03T08:06:19.211Z,99.99
2017-03-03T08:07:32.266Z,99.99
2017-03-03T08:08:45.373Z,99.99
2017-03-03T08:09:58.407Z,99.99
2017-03-03T08:11:11.480Z,99.99
2017-03-03T08:12:24.537Z,99.99
2017-03-03T08:13:37.228Z,99.99
2017-03-03T08:14:50.315Z,99.99
2017-03-03T08:16:03.426Z,99.99
2017-03-03T08:17:15.715Z,99.99
2017-03-03T08:18:28.782Z,99.99
2017-03-03T08:19:41.853Z,99.99
2017-03-03T08:20:54.927Z,99.99
2017-03-03T08:22:08.000Z,99.99
2017-03-03T08:23:21.069Z,99.99
2017-03-03T08:24:34.136Z,99.99
2017-03-03T08:25:46.814Z,99.99
2017-03-03T08:26:59.885Z,99.99
2017-03-03T08:28:12.830Z,99.99
2017-03-03T08:29:25.548Z,99.99
2017-03-03T08:30:38.249Z,99.99
2017-03-03T08:31:51.341Z,99.99
2017-03-03T08:33:04.411Z,99.99
2017-03-03T08:34:17.113Z,99.99
2017-03-03T08:35:30.181Z,99.99
2017-03-03T08:36:42.475Z,99.99
2017-03-03T08:37:55.562Z,99.99
2017-03-03T08:39:08.593Z,99.99
2017-03-03T08:40:21.246Z,99.99
2017-03-03T08:41:34.311Z,99.99
2017-03-03T08:42:46.953Z,99.99
2017-03-03T08:44:00.001Z,99.99
2017-03-03T08:45:12.695Z,99.99
2017-03-03T08:46:25.759Z,99.99
2017-03-03T08:47:38.837Z,99.99
2017-03-03T08:48:51.938Z,99.99
2017-03-03T08:50:05.037Z,99.99
2017-03-03T08:51:18.141Z,99.99
2017-03-03T08:52:31.203Z,99.99
2017-03-03T08:53:44.291Z,99.99
2017-03-03T08:54:57.404Z,99.99
2017-03-03T08:56:10.453Z,99.99
2017-03-03T08:57:23.537Z,99.99
2017-03-03T08:58:35.820Z,99.99
2017-03-03T08:59:48.899Z,99.99
2017-03-03T09:01:01.951Z,99.99
2017-03-03T09:02:15.083Z,99.99
2017-03-03T09:03:28.183Z,99.99
2017-03-03T09:04:40.471Z,99.99
2017-03-03T09:05:53.167Z,99.99
2017-03-03T09:07:05.896Z,99.99
2017-03-03T09:08:18.962Z,99.99
2017-03-03T09:09:31.667Z,99.99
2017-03-03T09:10:44.739Z,99.99
2017-03-03T09:11:57.804Z,99.99
2017-03-03T09:13:10.871Z,99.99
2017-03-03T09:14:23.921Z,99.99
2017-03-03T09:15:36.999Z,99.99
2017-03-03T09:16:50.092Z,99.99
2017-03-03T09:18:03.158Z,99.99
2017-03-03T09:19:16.225Z,99.99
2017-03-03T09:20:29.280Z,99.26
2017-03-03T09:21:42.000Z,99.99
2017-03-03T09:22:55.096Z,99.99
2017-03-03T09:24:08.119Z,99.73
2017-03-03T09:25:21.155Z,99.83
2017-03-03T09:26:33.897Z,99.99
2017-03-03T09:27:46.959Z,98.88
2017-03-03T09:29:00.049Z,97.64
2017-03-03T09:30:12.784Z,97.74
2017-03-03T09:31:25.895Z,97.92
2017-03-03T09:32:38.587Z,98.21
2017-03-03T09:33:51.281Z,98.79
2017-03-03T09:35:04.380Z,97.83
2017-03-03T09:36:17.451Z,98.02
2017-03-03T09:37:30.148Z,97.12
2017-03-03T09:38:42.837Z,96.84
2017-03-03T09:39:55.514Z,97.6
2017-03-03T09:41:08.209Z,97.97
2017-03-03T09:42:21.279Z,97.31
2017-03-03T09:43:33.976Z,97.41
2017-03-03T09:44:46.643Z,97.5
2017-03-03T09:45:59.695Z,98.36
2017-03-03T09:47:12.806Z,98.64
2017-03-03T09:48:25.497Z,96.74
2017-03-03T09:49:38.183Z,95.7
2017-03-03T09:50:51.276Z,95.79
2017-03-03T09:52:03.948Z,95.32
2017-03-03T09:53:16.664Z,96.17
2017-03-03T09:54:29.340Z,96.17
2017-03-03T09:55:42.398Z,96.6
2017-03-03T09:56:55.469Z,95.36
2017-03-03T09:58:08.575Z,95.17
2017-03-03T09:59:21.670Z,95.46
2017-03-03T10:00:33.968Z,94.42
2017-03-03T10:01:47.061Z,93.75
2017-03-03T10:03:00.131Z,95.27
2017-03-03T10:04:13.226Z,96.12
2017-03-03T10:05:26.290Z,97.08
2017-03-03T10:06:38.976Z,95.56
2017-03-03T10:07:52.057Z,94.79
2017-03-03T10:09:05.114Z,93.75
2017-03-03T10:10:17.827Z,94.98
2017-03-03T10:11:30.912Z,94.7
2017-03-03T10:12:43.990Z,94.42
2017-03-03T10:13:56.689Z,94.22
2017-03-03T10:15:09.417Z,94.13
2017-03-03T10:16:22.115Z,96.41
2017-03-03T10:17:35.048Z,94.51
2017-03-03T10:18:47.748Z,94.89
2017-03-03T10:20:00.853Z,95.94
2017-03-03T10:21:13.543Z,95.75
2017-03-03T10:22:26.265Z,93.55
2017-03-03T10:23:39.342Z,94.03
2017-03-03T10:24:52.037Z,92.89
2017-03-03T10:26:05.120Z,92.51
2017-03-03T10:27:18.224Z,91.75
2017-03-03T10:28:31.310Z,92.7
2017-03-03T10:29:44.000Z,91.28
2017-03-03T10:30:57.065Z,90.89
2017-03-03T10:32:10.164Z,91.37
2017-03-03T10:33:23.250Z,91.89
2017-03-03T10:34:36.330Z,91.28
2017-03-03T10:35:49.436Z,91.85
2017-03-03T10:37:02.491Z,91.56
2017-03-03T10:38:15.586Z,92.13
2017-03-03T10:39:28.512Z,92.8
2017-03-03T10:40:41.204Z,93.27
2017-03-03T10:41:53.500Z,92.36
2017-03-03T10:43:06.573Z,91.51
2017-03-03T10:44:19.645Z,91.8
2017-03-03T10:45:32.761Z,92.56
2017-03-03T10:46:45.478Z,92.08
2017-03-03T10:47:58.163Z,91.42
2017-03-03T10:49:11.281Z,91.61
2017-03-03T10:50:24.024Z,91.03
2017-03-03T10:51:37.084Z,91.42
2017-03-03T10:52:49.767Z,91.61
2017-03-03T10:54:02.859Z,92.46
2017-03-03T10:55:15.524Z,90.08
2017-03-03T10:56:28.200Z,90.75
2017-03-03T10:57:41.267Z,92.18
2017-03-03T10:58:54.353Z,92.46
2017-03-03T11:00:07.442Z,92.46
2017-03-03T11:01:20.512Z,91.22
2017-03-03T11:02:33.586Z,89.99
2017-03-03T11:03:46.718Z,90.66
2017-03-03T11:04:59.799Z,91.8
2017-03-03T11:06:12.873Z,90.84
2017-03-03T11:07:25.940Z,90.18
2017-03-03T11:08:38.230Z,90.84
2017-03-03T11:09:51.930Z,88.28
2017-03-03T11:11:05.056Z,89.23
2017-03-03T11:12:17.774Z,90.37
2017-03-03T11:13:30.817Z,90.37
2017-03-03T11:14:43.883Z,91.51
2017-03-03T11:15:56.962Z,87.99
2017-03-03T11:17:10.072Z,90.08
2017-03-03T11:18:23.100Z,87.52
2017-03-03T11:19:35.776Z,88.66
2017-03-03T11:20:48.914Z,87.23
2017-03-03T11:22:01.991Z,88.18
2017-03-03T11:23:15.101Z,87.99
2017-03-03T11:24:28.155Z,89.14
2017-03-03T11:25:41.272Z,88.85
2017-03-03T11:26:54.313Z,88.75
2017-03-03T11:28:07.393Z,89.51
2017-03-03T11:29:20.089Z,89.04
2017-03-03T11:30:32.780Z,88.09
2017-03-03T11:31:45.831Z,88.18
2017-03-03T11:32:58.901Z,88.75
2017-03-03T11:34:12.014Z,89.23
2017-03-03T11:35:24.314Z,89.23
2017-03-03T11:36:37.009Z,89.27
2017-03-03T11:37:49.714Z,88.46
2017-03-03T11:39:03.056Z,88.09
2017-03-03T11:40:16.105Z,87.99
2017-03-03T11:41:29.197Z,88.66
2017-03-03T11:42:42.259Z,87.46
2017-03-03T11:43:54.543Z,88.7
2017-03-03T11:45:06.460Z,88.51
2017-03-03T11:46:19.514Z,88.04
2017-03-03T11:47:32.593Z,86.61
2017-03-03T11:48:45.649Z,86.22
2017-03-03T11:49:58.724Z,86.32
2017-03-03T11:51:11.814Z,86.22
2017-03-03T11:52:24.906Z,87.18
2017-03-03T11:53:38.024Z,87.46
2017-03-03T11:54:51.080Z,88.37
2017-03-03T11:56:04.148Z,87.61
2017-03-03T11:57:17.223Z,85.47
2017-03-03T11:58:30.339Z,85.66
2017-03-03T11:59:43.039Z,86.32
2017-03-03T12:00:56.384Z,87.18
2017-03-03T12:02:09.056Z,88.04
2017-03-03T12:03:22.204Z,88.13
2017-03-03T12:04:34.936Z,87.37
2017-03-03T12:05:47.996Z,86.7
2017-03-03T12:07:01.114Z,85.18
2017-03-03T12:08:14.223Z,84.52
2017-03-03T12:09:27.281Z,84.99
2017-03-03T12:10:40.350Z,85.47
2017-03-03T12:11:53.449Z,87.37
2017-03-03T12:13:06.515Z,86.13
2017-03-03T12:14:19.569Z,87.94
2017-03-03T12:15:32.649Z,86.32
2017-03-03T12:16:45.707Z,84.52
2017-03-03T12:17:58.769Z,83.94
2017-03-03T12:19:11.839Z,84.13
2017-03-03T12:20:24.507Z,85.08
2017-03-03T12:21:37.154Z,85.18
2017-03-03T12:22:50.252Z,85.47
2017-03-03T12:24:03.348Z,88.32
2017-03-03T12:25:16.453Z,87.46
2017-03-03T12:26:29.501Z,86.42
2017-03-03T12:27:42.568Z,86.8
2017-03-03T12:28:55.664Z,86.22
2017-03-03T12:30:08.735Z,85.66
2017-03-03T12:31:21.806Z,86.99
2017-03-03T12:32:34.928Z,87.94
2017-03-03T12:33:47.298Z,87.56
2017-03-03T12:34:59.994Z,86.9
2017-03-03T12:36:13.087Z,85.75
2017-03-03T12:37:26.134Z,87.65
2017-03-03T12:38:39.199Z,86.61
2017-03-03T12:39:51.918Z,86.8
2017-03-03T12:41:04.662Z,86.7
2017-03-03T12:42:16.964Z,85.08
2017-03-03T12:43:29.658Z,85.85
2017-03-03T12:44:42.740Z,84.8
2017-03-03T12:45:55.403Z,85.18
2017-03-03T12:47:08.449Z,86.22
2017-03-03T12:48:21.524Z,86.42
2017-03-03T12:49:34.190Z,84.89
2017-03-03T12:50:47.259Z,85.18
2017-03-03T12:51:59.961Z,85.56
2017-03-03T12:53:12.272Z,85.08
2017-03-03T12:54:24.930Z,85.47
2017-03-03T12:55:37.625Z,86.04
2017-03-03T12:56:50.723Z,84.61
2017-03-03T12:58:03.790Z,84.99
2017-03-03T12:59:16.888Z,83.75
2017-03-03T13:00:29.980Z,82.9
2017-03-03T13:01:43.046Z,84.23
2017-03-03T13:02:56.167Z,83.85
2017-03-03T13:04:08.471Z,85.66
2017-03-03T13:05:21.186Z,86.32
2017-03-03T13:06:33.893Z,85.75
2017-03-03T13:07:46.958Z,86.7
2017-03-03T13:09:00.104Z,86.61
2017-03-03T13:10:13.176Z,84.89
2017-03-03T13:11:26.221Z,85.32
2017-03-03T13:12:38.905Z,86.32
2017-03-03T13:13:51.607Z,87.08
2017-03-03T13:15:04.307Z,85.37
2017-03-03T13:16:16.993Z,85.08
2017-03-03T13:17:29.299Z,86.65
2017-03-03T13:18:42.349Z,86.65
2017-03-03T13:19:54.643Z,86.55
2017-03-03T13:21:07.355Z,87.7
2017-03-03T13:22:20.422Z,86.46
2017-03-03T13:23:33.530Z,86.18
2017-03-03T13:24:46.647Z,85.6
2017-03-03T13:25:59.346Z,86.75
2017-03-03T13:27:12.414Z,87.79
2017-03-03T13:28:25.484Z,87.7
2017-03-03T13:29:38.189Z,88.18
2017-03-03T13:30:51.304Z,87.03
2017-03-03T13:32:03.997Z,86.65
2017-03-03T13:33:17.076Z,85.89
2017-03-03T13:34:29.789Z,86.36
2017-03-03T13:35:42.537Z,85.41
2017-03-03T13:36:55.599Z,84.65
2017-03-03T13:38:08.652Z,84.56
2017-03-03T13:39:21.356Z,85.03
2017-03-03T13:40:34.469Z,85.22
2017-03-03T13:41:46.798Z,85.22
2017-03-03T13:42:59.460Z,84.56
2017-03-03T13:44:12.532Z,84.17
2017-03-03T13:45:25.626Z,84.17
2017-03-03T13:46:38.682Z,84.84
2017-03-03T13:47:51.749Z,83.74
2017-03-03T13:49:04.464Z,83.41
2017-03-03T13:50:17.553Z,83.22
2017-03-03T13:51:30.634Z,83.51
2017-03-03T13:52:43.678Z,83.8
2017-03-03T13:53:56.751Z,84.36
2017-03-03T13:55:09.898Z,83.98
2017-03-03T13:56:23.033Z,81.98
2017-03-03T13:57:36.112Z,81.74
2017-03-03T13:58:48.413Z,81.74
2017-03-03T14:00:01.498Z,81.26
2017-03-03T14:01:14.223Z,82.41
2017-03-03T14:02:26.895Z,81.93
2017-03-03T14:03:39.986Z,81.36
2017-03-03T14:04:53.090Z,81.93
2017-03-03T14:06:06.191Z,83.07
2017-03-03T14:07:19.261Z,82.98
2017-03-03T14:08:32.381Z,82.5
2017-03-03T14:09:45.115Z,82.6
2017-03-03T14:10:58.209Z,80.6
2017-03-03T14:12:10.891Z,81.74
2017-03-03T14:13:23.960Z,80.12
2017-03-03T14:14:37.078Z,80.02
2017-03-03T14:15:50.145Z,80.12
2017-03-03T14:17:03.275Z,78.5
2017-03-03T14:18:16.343Z,77.55
2017-03-03T14:19:29.038Z,77.83
2017-03-03T14:20:42.113Z,77.55
2017-03-03T14:21:55.457Z,78.59
2017-03-03T14:23:08.554Z,78.88
2017-03-03T14:24:21.701Z,78.22
2017-03-03T14:25:34.795Z,77.26
2017-03-03T14:26:47.491Z,75.93
2017-03-03T14:28:00.187Z,76.98
2017-03-03T14:29:13.250Z,77.36
2017-03-03T14:30:25.902Z,74.12
2017-03-03T14:31:38.974Z,74.4
2017-03-03T14:32:52.071Z,76.88
2017-03-03T14:34:04.389Z,78.22
2017-03-03T14:35:17.055Z,79.07
2017-03-03T14:36:30.157Z,76.69
2017-03-03T14:37:42.930Z,75.74
2017-03-03T14:38:56.000Z,75.26
2017-03-03T14:40:09.091Z,73.93
2017-03-03T14:41:21.767Z,74.98
2017-03-03T14:42:34.458Z,75.45
2017-03-03T14:43:47.526Z,74.27
2017-03-03T14:45:00.605Z,74.12
2017-03-03T14:46:13.314Z,74.75
2017-03-03T14:47:26.386Z,75.89
2017-03-03T14:48:39.483Z,75.79
2017-03-03T14:49:52.214Z,73.99
2017-03-03T14:51:05.256Z,76.27
2017-03-03T14:52:18.331Z,76.84
2017-03-03T14:53:31.451Z,77.22
2017-03-03T14:54:44.545Z,76.84
2017-03-03T14:55:57.631Z,75.6
2017-03-03T14:57:09.927Z,75.79
2017-03-03T14:58:22.973Z,75.51
2017-03-03T14:59:36.044Z,74.84
2017-03-03T15:00:49.100Z,75.51
2017-03-03T15:02:02.172Z,74.84
2017-03-03T15:03:14.839Z,75.79
2017-03-03T15:04:27.960Z,76.27
2017-03-03T15:05:41.059Z,75.99
2017-03-03T15:06:54.119Z,75.13
2017-03-03T15:08:07.193Z,75.7
2017-03-03T15:09:20.272Z,78.17
2017-03-03T15:10:33.010Z,77.98
2017-03-03T15:11:46.101Z,78.27
2017-03-03T15:12:58.781Z,77.89
2017-03-03T15:14:11.831Z,78.17
2017-03-03T15:15:24.944Z,79.13
2017-03-03T15:16:38.097Z,77.89
2017-03-03T15:17:51.215Z,77.22
2017-03-03T15:19:03.957Z,78.08
2017-03-03T15:20:17.034Z,78.46
2017-03-03T15:21:30.357Z,78.37
2017-03-03T15:22:43.424Z,78.52
2017-03-03T15:23:56.507Z,80.9
2017-03-03T15:25:08.823Z,81.79
2017-03-03T15:26:21.536Z,82.7
2017-03-03T15:27:34.584Z,82.23
2017-03-03T15:28:47.631Z,81.76
2017-03-03T15:30:00.678Z,80.61
2017-03-03T15:31:13.394Z,80.8
2017-03-03T15:32:26.115Z,81.47
2017-03-03T15:33:38.781Z,83.65
2017-03-03T15:34:51.878Z,82.8
2017-03-03T15:36:04.933Z,83.56
2017-03-03T15:37:17.980Z,83.18
2017-03-03T15:38:31.041Z,83.18
2017-03-03T15:39:43.771Z,82.99
2017-03-03T15:40:56.858Z,83.37